createdAt,value
2023-05-19T00:02:40.920Z,2.85
2023-05-19T00:07:42.594Z,2.17
2023-05-19T00:12:44.138Z,2.00
2023-05-19T00:17:45.750Z,2.22
2023-05-19T00:22:47.366Z,2.33
2023-05-19T00:27:48.912Z,2.20
2023-05-19T00:32:50.600Z,2.28
2023-05-19T00:37:52.236Z,2.63
2023-05-19T00:42:53.758Z,2.28
2023-05-19T00:47:55.432Z,2.25
2023-05-19T00:52:57.188Z,2.40
2023-05-19T00:57:58.726Z,2.45
2023-05-19T01:03:00.358Z,2.45
2023-05-19T01:08:01.968Z,3.45
2023-05-19T01:13:04.425Z,3.40
2023-05-19T01:18:11.218Z,3.08
2023-05-19T01:23:24.100Z,2.40
2023-05-19T01:28:25.545Z,2.67
2023-05-19T01:33:27.183Z,2.20
2023-05-19T01:38:28.763Z,2.55
2023-05-19T01:43:30.330Z,2.15
2023-05-19T01:48:31.866Z,2.30
2023-05-19T01:53:33.391Z,1.83
2023-05-19T01:58:38.856Z,2.28
2023-05-19T02:04:06.733Z,2.10
2023-05-19T02:09:13.070Z,2.05
2023-05-19T02:15:00.928Z,2.40
2023-05-19T02:25:06.439Z,2.47
2023-05-19T02:30:08.835Z,2.33
2023-05-19T02:35:10.396Z,2.65
2023-05-19T02:40:12.023Z,2.83
2023-05-19T02:45:13.583Z,3.00
2023-05-19T02:50:15.146Z,2.22
2023-05-19T02:55:17.643Z,2.20
2023-05-19T03:00:19.414Z,2.60
2023-05-19T03:05:20.994Z,2.72
2023-05-19T03:10:22.927Z,2.05
2023-05-19T03:15:24.479Z,2.30
2023-05-19T03:20:26.027Z,3.13
2023-05-19T03:25:27.595Z,2.50
2023-05-19T03:30:29.130Z,2.38
2023-05-19T03:35:30.796Z,2.63
2023-05-19T03:40:32.512Z,2.17
2023-05-19T03:45:34.257Z,2.20
2023-05-19T03:50:38.000Z,2.58
2023-05-19T03:55:39.554Z,2.33
2023-05-19T04:00:41.089Z,2.10
2023-05-19T04:05:42.633Z,2.40
2023-05-19T04:10:44.190Z,2.40
2023-05-19T04:15:45.715Z,2.60
2023-05-19T04:20:47.559Z,2.40
2023-05-19T04:25:49.360Z,2.13
2023-05-19T04:30:51.612Z,2.75
2023-05-19T04:35:53.304Z,2.30
2023-05-19T04:40:56.344Z,2.70
2023-05-19T04:45:58.216Z,2.17
2023-05-19T04:51:01.606Z,3.00
2023-05-19T04:56:03.529Z,2.85
2023-05-19T05:01:05.286Z,3.28
2023-05-19T05:06:06.850Z,2.83
2023-05-19T05:11:08.710Z,3.65
2023-05-19T05:16:11.348Z,3.40
2023-05-19T05:26:18.606Z,2.63
2023-05-19T05:31:20.167Z,2.90
2023-05-19T05:36:21.712Z,2.58
2023-05-19T05:41:23.254Z,2.20
2023-05-19T05:46:24.904Z,2.28
2023-05-19T05:51:27.246Z,2.35
2023-05-19T05:56:29.098Z,1.92
2023-05-19T06:01:31.599Z,3.15
2023-05-19T06:06:34.197Z,1.92
2023-05-19T06:11:35.875Z,1.95
2023-05-19T06:16:37.574Z,2.30
2023-05-19T06:21:39.319Z,2.25
2023-05-19T06:26:40.896Z,2.40
2023-05-19T06:31:42.558Z,2.60
2023-05-19T06:36:44.108Z,2.58
2023-05-19T06:41:45.630Z,2.58
2023-05-19T06:46:47.204Z,2.63
2023-05-19T06:51:49.210Z,2.28
2023-05-19T06:56:50.830Z,2.20
2023-05-19T07:01:52.481Z,2.97
2023-05-19T07:06:55.019Z,2.50
2023-05-19T07:16:58.061Z,2.60
2023-05-19T07:21:59.589Z,2.58
2023-05-19T07:27:01.444Z,3.53
2023-05-19T07:32:03.038Z,2.28
2023-05-19T07:37:04.839Z,3.05
2023-05-19T07:42:06.389Z,2.65
2023-05-19T07:47:07.986Z,2.20
2023-05-19T07:52:09.523Z,2.22
2023-05-19T07:57:11.339Z,2.63
2023-05-19T08:02:12.999Z,1.75
2023-05-19T08:07:14.569Z,2.53
2023-05-19T08:12:16.103Z,2.20
2023-05-19T08:17:17.631Z,2.95
2023-05-19T08:22:19.190Z,3.08
2023-05-19T08:27:20.797Z,2.30
2023-05-19T08:32:22.380Z,1.95
2023-05-19T08:37:24.003Z,2.85
2023-05-19T08:42:25.541Z,2.63
2023-05-19T08:47:27.954Z,2.40
2023-05-19T08:57:34.786Z,2.05
2023-05-19T09:02:36.837Z,2.55
2023-05-19T09:07:38.462Z,2.17
2023-05-19T09:12:45.473Z,2.10
2023-05-19T09:17:48.111Z,2.55
2023-05-19T09:22:50.638Z,3.22
2023-05-19T09:27:53.834Z,2.33
2023-05-19T09:32:55.428Z,2.50
2023-05-19T09:37:57.005Z,2.70
2023-05-19T09:42:58.551Z,3.30
2023-05-19T09:48:00.179Z,2.67
2023-05-19T09:53:01.834Z,3.47
2023-05-19T09:58:04.817Z,2.50
2023-05-19T10:03:06.437Z,3.05
2023-05-19T10:08:10.287Z,2.92
2023-05-19T10:13:12.371Z,2.53
2023-05-19T10:18:13.945Z,2.17
2023-05-19T10:23:15.503Z,2.47
2023-05-19T10:28:17.427Z,2.88
2023-05-19T10:33:19.235Z,2.88
2023-05-19T10:38:24.950Z,2.40
2023-05-19T10:43:49.553Z,3.30
2023-05-19T10:48:51.120Z,2.65
2023-05-19T10:53:54.105Z,2.42
2023-05-19T10:58:56.418Z,2.35
2023-05-19T11:03:58.118Z,2.55
2023-05-19T11:09:09.023Z,2.65
2023-05-19T11:14:11.881Z,2.42
2023-05-19T11:19:20.234Z,3.00
2023-05-19T11:24:35.848Z,3.00
2023-05-19T11:29:37.442Z,2.50
2023-05-19T11:34:39.035Z,3.70
2023-05-19T11:39:40.647Z,2.40
2023-05-19T11:44:48.692Z,2.30
2023-05-19T11:49:51.952Z,3.20
2023-05-19T11:54:53.662Z,2.05
2023-05-19T11:59:56.747Z,2.10
2023-05-19T12:04:58.370Z,2.63
2023-05-19T12:09:59.918Z,2.50
2023-05-19T12:15:02.710Z,2.22
2023-05-19T12:20:04.936Z,2.40
2023-05-19T12:25:06.582Z,2.13
2023-05-19T12:30:08.869Z,2.53
2023-05-19T12:35:10.675Z,2.80
2023-05-19T12:40:14.935Z,2.30
2023-05-19T12:45:16.477Z,2.65
2023-05-19T12:50:18.081Z,2.50
2023-05-19T12:55:20.906Z,2.42
2023-05-19T13:00:25.613Z,2.42
2023-05-19T13:05:28.069Z,2.70
2023-05-19T13:10:29.824Z,2.45
2023-05-19T13:15:34.324Z,1.98
2023-05-19T13:20:36.590Z,2.25
2023-05-19T13:25:38.169Z,2.30
2023-05-19T13:30:40.492Z,2.70
2023-05-19T13:35:42.086Z,2.47
2023-05-19T13:40:44.266Z,2.38
2023-05-19T13:45:45.964Z,2.15
2023-05-19T13:50:47.549Z,3.20
2023-05-19T13:55:49.131Z,2.38
2023-05-19T14:00:54.474Z,2.17
2023-05-19T14:05:56.008Z,2.40
2023-05-19T14:10:57.544Z,2.35
2023-05-19T14:15:59.132Z,2.67
2023-05-19T14:21:00.770Z,2.00
2023-05-19T14:26:02.321Z,2.03
2023-05-19T14:31:03.927Z,1.95
2023-05-19T14:36:06.311Z,1.80
2023-05-19T14:41:07.907Z,2.30
2023-05-19T14:46:09.466Z,2.25
2023-05-19T14:51:10.993Z,2.65
2023-05-19T14:56:12.592Z,2.40
2023-05-19T15:01:14.239Z,2.10
2023-05-19T15:06:15.999Z,2.78
2023-05-19T15:11:17.564Z,2.10
2023-05-19T15:16:19.095Z,2.40
2023-05-19T15:21:20.634Z,2.38
2023-05-19T15:26:22.377Z,2.70
2023-05-19T15:31:24.060Z,3.05
2023-05-19T15:36:25.688Z,3.40
2023-05-19T15:41:27.224Z,3.40
2023-05-19T15:46:29.312Z,3.45
2023-05-19T15:56:33.227Z,2.60
2023-05-19T16:01:35.018Z,3.15
2023-05-19T16:06:36.589Z,2.60
2023-05-19T16:11:38.128Z,3.00
2023-05-19T16:16:39.701Z,2.80
2023-05-19T16:21:41.347Z,3.60
2023-05-19T16:26:42.891Z,4.03
2023-05-19T16:31:44.475Z,4.20
2023-05-19T16:36:46.056Z,3.65
2023-05-19T16:41:47.606Z,4.03
2023-05-19T16:46:49.161Z,3.45
2023-05-19T16:51:52.750Z,3.80
2023-05-19T16:56:54.392Z,3.78
2023-05-19T17:01:58.589Z,3.83
2023-05-19T17:07:00.138Z,3.72
2023-05-19T17:12:01.677Z,4.72
2023-05-19T17:17:03.335Z,5.07
2023-05-19T17:22:04.965Z,5.13
2023-05-19T17:27:06.530Z,5.65
2023-05-19T17:32:08.086Z,6.10
2023-05-19T17:37:09.833Z,5.40
2023-05-19T17:42:11.380Z,5.68
2023-05-19T17:47:13.041Z,5.30
2023-05-19T17:52:15.855Z,4.93
2023-05-19T17:57:17.605Z,5.25
2023-05-19T18:02:19.335Z,4.88
2023-05-19T18:07:20.892Z,5.07
2023-05-19T18:12:22.794Z,4.82
2023-05-19T18:17:24.385Z,5.55
2023-05-19T18:22:26.207Z,5.05
2023-05-19T18:27:27.922Z,5.40
2023-05-19T18:32:29.550Z,4.85
2023-05-19T18:37:31.570Z,4.22
2023-05-19T18:42:33.128Z,3.78
2023-05-19T18:47:34.735Z,3.97
2023-05-19T18:52:36.297Z,4.22
2023-05-19T18:57:37.876Z,4.13
2023-05-19T19:02:39.424Z,3.50
2023-05-19T19:07:41.468Z,3.58
2023-05-19T19:12:43.034Z,3.70
2023-05-19T19:17:45.604Z,3.20
2023-05-19T19:22:47.377Z,3.78
2023-05-19T19:27:48.934Z,3.10
2023-05-19T19:32:50.540Z,3.40
2023-05-19T19:37:52.129Z,3.35
2023-05-19T19:42:53.661Z,3.88
2023-05-19T19:47:55.254Z,4.13
2023-05-19T19:52:56.806Z,3.67
2023-05-19T19:57:58.378Z,3.72
2023-05-19T20:03:04.363Z,3.60
2023-05-19T20:08:06.904Z,3.72
2023-05-19T20:13:08.585Z,3.63
2023-05-19T20:18:10.912Z,3.58
2023-05-19T20:23:13.375Z,3.80
2023-05-19T20:28:14.947Z,3.42
2023-05-19T20:33:16.561Z,3.35
2023-05-19T20:38:18.090Z,3.20
2023-05-19T20:43:19.630Z,3.22
2023-05-19T20:48:21.203Z,3.30
2023-05-19T20:53:22.736Z,2.72
2023-05-19T20:58:26.699Z,2.58
2023-05-19T21:03:28.635Z,2.88
2023-05-19T21:08:30.413Z,3.33
2023-05-19T21:13:32.354Z,3.75
2023-05-19T21:18:34.882Z,2.90
2023-05-19T21:28:37.845Z,2.45
2023-05-19T21:33:39.390Z,2.70
2023-05-19T21:38:40.971Z,2.95
2023-05-19T21:43:44.739Z,3.55
2023-05-19T21:48:46.801Z,2.80
2023-05-19T21:53:48.345Z,3.38
2023-05-19T21:58:49.916Z,3.03
2023-05-19T22:03:51.477Z,3.33
2023-05-19T22:08:53.067Z,4.10
2023-05-19T22:13:54.811Z,3.22
2023-05-19T22:18:56.623Z,3.83
2023-05-19T22:23:58.172Z,4.25
2023-05-19T22:28:59.708Z,4.68
2023-05-19T22:34:01.262Z,5.20
2023-05-19T22:39:02.859Z,4.10
2023-05-19T22:44:04.411Z,4.03
2023-05-19T22:49:06.018Z,3.95
2023-05-19T22:54:07.876Z,3.47
2023-05-19T22:59:09.424Z,4.30
2023-05-19T23:04:11.510Z,4.07
2023-05-19T23:09:13.401Z,4.00
2023-05-19T23:14:14.959Z,5.03
2023-05-19T23:19:17.086Z,4.15
2023-05-19T23:24:18.791Z,4.07
2023-05-19T23:29:20.471Z,4.38
2023-05-19T23:34:22.041Z,5.05
2023-05-19T23:39:25.227Z,4.10
2023-05-19T23:44:27.296Z,3.58
2023-05-19T23:49:28.880Z,4.30
2023-05-19T23:54:31.017Z,3.83
2023-05-19T23:59:32.568Z,3.88
